sensor_id;sensor_type;location;lat;lon;timestamp;P1;durP1;ratioP1;P2;durP2;ratioP2
13075;SDS011;6604;52.484;13.330;2022-09-01T07:48:45;1.57;;;1.10;;
13075;SDS011;6604;52.484;13.330;2022-09-01T07:51:13;2.47;;;1.13;;
13075;SDS011;6604;52.484;13.330;2022-09-01T07:53:43;0.87;;;0.80;;
13075;SDS011;6604;52.484;13.330;2022-09-01T07:56:10;2.33;;;1.17;;
13075;SDS011;6604;52.484;13.330;2022-09-01T07:58:37;0.90;;;0.90;;
13075;SDS011;6604;52.484;13.330;2022-09-01T08:01:05;2.83;;;1.20;;
13075;SDS011;6604;52.484;13.330;2022-09-01T08:03:32;2.03;;;1.07;;
13075;SDS011;6604;52.484;13.330;2022-09-01T08:06:02;1.87;;;1.13;;
13075;SDS011;6604;52.484;13.330;2022-09-01T08:08:30;2.37;;;1.40;;
13075;SDS011;6604;52.484;13.330;2022-09-01T08:10:57;1.73;;;0.80;;
13075;SDS011;6604;52.484;13.330;2022-09-01T08:13:23;1.37;;;1.03;;
13075;SDS011;6604;52.484;13.330;2022-09-01T08:15:50;1.60;;;0.97;;
13075;SDS011;6604;52.484;13.330;2022-09-01T08:18:16;1.87;;;0.87;;
13075;SDS011;6604;52.484;13.330;2022-09-01T08:20:43;1.23;;;1.00;;
13075;SDS011;6604;52.484;13.330;2022-09-01T08:23:13;0.90;;;0.90;;
13075;SDS011;6604;52.484;13.330;2022-09-01T08:25:40;1.60;;;0.93;;
13075;SDS011;6604;52.484;13.330;2022-09-01T08:28:08;0.77;;;0.77;;
13075;SDS011;6604;52.484;13.330;2022-09-01T08:30:36;1.73;;;1.00;;
13075;SDS011;6604;52.484;13.330;2022-09-01T08:33:03;1.17;;;0.90;;
13075;SDS011;6604;52.484;13.330;2022-09-01T08:35:29;2.07;;;1.30;;
13075;SDS011;6604;52.484;13.330;2022-09-01T08:37:56;1.53;;;1.00;;
13075;SDS011;6604;52.484;13.330;2022-09-01T08:40:24;1.60;;;0.97;;
13075;SDS011;6604;52.484;13.330;2022-09-01T08:42:53;2.10;;;0.97;;
13075;SDS011;6604;52.484;13.330;2022-09-01T08:45:24;1.67;;;0.97;;
13075;SDS011;6604;52.484;13.330;2022-09-01T08:47:52;2.83;;;1.30;;
13075;SDS011;6604;52.484;13.330;2022-09-01T08:50:20;1.47;;;1.00;;
13075;SDS011;6604;52.484;13.330;2022-09-01T08:52:49;1.57;;;1.00;;
13075;SDS011;6604;52.484;13.330;2022-09-01T08:55:18;3.83;;;1.77;;
13075;SDS011;6604;52.484;13.330;2022-09-01T08:57:51;1.77;;;1.03;;
13075;SDS011;6604;52.484;13.330;2022-09-01T09:00:20;1.00;;;0.90;;
13075;SDS011;6604;52.484;13.330;2022-09-01T09:03:01;2.20;;;1.33;;
13075;SDS011;6604;52.484;13.330;2022-09-01T09:05:32;0.80;;;0.70;;
13075;SDS011;6604;52.484;13.330;2022-09-01T09:10:47;1.30;;;1.10;;
13075;SDS011;6604;52.484;13.330;2022-09-01T09:13:19;1.23;;;0.90;;
13075;SDS011;6604;52.484;13.330;2022-09-01T09:15:49;1.53;;;1.00;;
13075;SDS011;6604;52.484;13.330;2022-09-01T09:18:16;6.83;;;0.90;;
13075;SDS011;6604;52.484;13.330;2022-09-01T09:20:45;1.33;;;1.20;;
13075;SDS011;6604;52.484;13.330;2022-09-01T09:23:15;1.23;;;1.10;;
13075;SDS011;6604;52.484;13.330;2022-09-01T09:25:43;1.30;;;0.80;;
13075;SDS011;6604;52.484;13.330;2022-09-01T09:28:11;1.70;;;1.40;;
13075;SDS011;6604;52.484;13.330;2022-09-01T09:30:39;1.23;;;1.13;;
13075;SDS011;6604;52.484;13.330;2022-09-01T09:33:07;1.37;;;1.07;;
13075;SDS011;6604;52.484;13.330;2022-09-01T09:35:37;1.80;;;0.87;;
13075;SDS011;6604;52.484;13.330;2022-09-01T09:40:59;5.43;;;1.63;;
13075;SDS011;6604;52.484;13.330;2022-09-01T09:43:26;0.90;;;0.90;;
13075;SDS011;6604;52.484;13.330;2022-09-01T09:46:18;3.27;;;0.83;;
13075;SDS011;6604;52.484;13.330;2022-09-01T09:48:43;1.13;;;1.03;;
13075;SDS011;6604;52.484;13.330;2022-09-01T09:51:14;0.93;;;0.90;;
13075;SDS011;6604;52.484;13.330;2022-09-01T09:53:41;2.07;;;0.87;;
13075;SDS011;6604;52.484;13.330;2022-09-01T09:56:08;1.63;;;0.90;;
13075;SDS011;6604;52.484;13.330;2022-09-01T09:58:42;1.27;;;0.90;;
13075;SDS011;6604;52.484;13.330;2022-09-01T10:01:12;3.03;;;0.90;;
13075;SDS011;6604;52.484;13.330;2022-09-01T10:03:41;2.33;;;0.90;;
13075;SDS011;6604;52.484;13.330;2022-09-01T10:06:09;1.00;;;0.60;;
13075;SDS011;6604;52.484;13.330;2022-09-01T10:08:37;1.50;;;0.90;;
13075;SDS011;6604;52.484;13.330;2022-09-01T10:11:08;0.97;;;0.80;;
13075;SDS011;6604;52.484;13.330;2022-09-01T10:13:36;0.80;;;0.80;;
13075;SDS011;6604;52.484;13.330;2022-09-01T10:16:03;1.10;;;0.90;;
13075;SDS011;6604;52.484;13.330;2022-09-01T10:18:33;1.70;;;0.80;;
13075;SDS011;6604;52.484;13.330;2022-09-01T10:21:02;2.40;;;1.00;;
13075;SDS011;6604;52.484;13.330;2022-09-01T10:23:29;1.53;;;0.70;;
13075;SDS011;6604;52.484;13.330;2022-09-01T10:25:59;1.30;;;0.90;;
13075;SDS011;6604;52.484;13.330;2022-09-01T10:28:27;1.53;;;0.80;;
13075;SDS011;6604;52.484;13.330;2022-09-01T10:30:56;0.63;;;0.60;;
13075;SDS011;6604;52.484;13.330;2022-09-01T10:33:23;0.70;;;0.70;;
13075;SDS011;6604;52.484;13.330;2022-09-01T10:35:52;0.70;;;0.70;;
13075;SDS011;6604;52.484;13.330;2022-09-01T10:38:20;1.60;;;0.70;;
13075;SDS011;6604;52.484;13.330;2022-09-01T10:40:47;1.87;;;0.63;;
13075;SDS011;6604;52.484;13.330;2022-09-01T10:43:38;0.80;;;0.80;;
13075;SDS011;6604;52.484;13.330;2022-09-01T10:46:17;0.67;;;0.60;;
13075;SDS011;6604;52.484;13.330;2022-09-01T10:49:12;1.07;;;0.80;;
13075;SDS011;6604;52.484;13.330;2022-09-01T10:51:44;0.70;;;0.70;;
13075;SDS011;6604;52.484;13.330;2022-09-01T10:56:51;0.73;;;0.73;;
13075;SDS011;6604;52.484;13.330;2022-09-01T10:59:23;1.00;;;0.90;;
13075;SDS011;6604;52.484;13.330;2022-09-01T11:07:29;0.70;;;0.60;;
13075;SDS011;6604;52.484;13.330;2022-09-01T11:10:21;2.23;;;0.93;;
13075;SDS011;6604;52.484;13.330;2022-09-01T11:12:51;2.63;;;1.00;;
13075;SDS011;6604;52.484;13.330;2022-09-01T11:15:33;0.77;;;0.60;;
13075;SDS011;6604;52.484;13.330;2022-09-01T11:18:01;3.03;;;0.57;;
13075;SDS011;6604;52.484;13.330;2022-09-01T11:20:28;2.20;;;0.90;;
13075;SDS011;6604;52.484;13.330;2022-09-01T11:22:59;1.83;;;0.83;;
13075;SDS011;6604;52.484;13.330;2022-09-01T11:25:31;1.07;;;0.73;;
13075;SDS011;6604;52.484;13.330;2022-09-01T11:28:05;1.30;;;0.80;;
13075;SDS011;6604;52.484;13.330;2022-09-01T11:30:36;5.30;;;0.93;;
13075;SDS011;6604;52.484;13.330;2022-09-01T11:33:10;0.93;;;0.93;;
13075;SDS011;6604;52.484;13.330;2022-09-01T11:35:38;2.13;;;1.20;;
13075;SDS011;6604;52.484;13.330;2022-09-01T11:38:07;1.40;;;0.77;;
13075;SDS011;6604;52.484;13.330;2022-09-01T11:40:34;0.70;;;0.70;;
13075;SDS011;6604;52.484;13.330;2022-09-01T11:43:02;0.70;;;0.70;;
13075;SDS011;6604;52.484;13.330;2022-09-01T11:45:30;0.70;;;0.70;;
13075;SDS011;6604;52.484;13.330;2022-09-01T11:47:59;0.93;;;0.73;;
13075;SDS011;6604;52.484;13.330;2022-09-01T11:50:27;3.03;;;0.70;;
13075;SDS011;6604;52.484;13.330;2022-09-01T11:52:57;2.97;;;0.90;;
13075;SDS011;6604;52.484;13.330;2022-09-01T11:55:29;1.23;;;0.70;;
13075;SDS011;6604;52.484;13.330;2022-09-01T11:57:56;1.60;;;0.70;;
13075;SDS011;6604;52.484;13.330;2022-09-01T12:00:26;0.73;;;0.70;;
13075;SDS011;6604;52.484;13.330;2022-09-01T12:02:53;0.60;;;0.60;;
13075;SDS011;6604;52.484;13.330;2022-09-01T12:05:25;2.40;;;1.33;;
13075;SDS011;6604;52.484;13.330;2022-09-01T12:07:52;1.10;;;1.00;;
13075;SDS011;6604;52.484;13.330;2022-09-01T12:10:19;1.37;;;0.80;;
13075;SDS011;6604;52.484;13.330;2022-09-01T12:12:59;0.80;;;0.80;;
13075;SDS011;6604;52.484;13.330;2022-09-01T12:15:26;0.70;;;0.70;;
13075;SDS011;6604;52.484;13.330;2022-09-01T12:18:06;1.93;;;0.90;;
13075;SDS011;6604;52.484;13.330;2022-09-01T12:20:34;1.13;;;0.97;;
13075;SDS011;6604;52.484;13.330;2022-09-01T12:23:02;0.70;;;0.70;;
13075;SDS011;6604;52.484;13.330;2022-09-01T12:25:34;3.20;;;1.00;;
13075;SDS011;6604;52.484;13.330;2022-09-01T12:28:03;1.23;;;1.00;;
13075;SDS011;6604;52.484;13.330;2022-09-01T12:30:30;0.70;;;0.70;;
13075;SDS011;6604;52.484;13.330;2022-09-01T12:32:59;2.67;;;0.73;;
13075;SDS011;6604;52.484;13.330;2022-09-01T12:35:26;0.70;;;0.70;;
13075;SDS011;6604;52.484;13.330;2022-09-01T12:40:34;4.00;;;0.90;;
13075;SDS011;6604;52.484;13.330;2022-09-01T12:43:02;1.93;;;1.47;;
13075;SDS011;6604;52.484;13.330;2022-09-01T12:45:36;3.70;;;1.00;;
13075;SDS011;6604;52.484;13.330;2022-09-01T12:48:02;1.60;;;0.97;;
13075;SDS011;6604;52.484;13.330;2022-09-01T12:53:19;1.70;;;1.00;;
13075;SDS011;6604;52.484;13.330;2022-09-01T12:56:05;1.20;;;0.70;;
13075;SDS011;6604;52.484;13.330;2022-09-01T12:58:42;2.37;;;0.80;;
13075;SDS011;6604;52.484;13.330;2022-09-01T13:01:15;5.23;;;0.87;;
13075;SDS011;6604;52.484;13.330;2022-09-01T13:04:10;1.47;;;0.93;;
13075;SDS011;6604;52.484;13.330;2022-09-01T13:06:36;1.17;;;0.80;;
13075;SDS011;6604;52.484;13.330;2022-09-01T13:09:03;1.00;;;0.90;;
13075;SDS011;6604;52.484;13.330;2022-09-01T13:11:30;1.87;;;0.70;;
13075;SDS011;6604;52.484;13.330;2022-09-01T13:13:58;1.90;;;1.07;;
13075;SDS011;6604;52.484;13.330;2022-09-01T13:16:25;3.67;;;0.97;;
13075;SDS011;6604;52.484;13.330;2022-09-01T13:18:52;0.80;;;0.80;;
13075;SDS011;6604;52.484;13.330;2022-09-01T13:21:18;1.80;;;0.80;;
13075;SDS011;6604;52.484;13.330;2022-09-01T13:23:45;2.33;;;1.10;;
13075;SDS011;6604;52.484;13.330;2022-09-01T13:26:13;1.70;;;0.87;;
13075;SDS011;6604;52.484;13.330;2022-09-01T13:28:40;1.33;;;0.70;;
13075;SDS011;6604;52.484;13.330;2022-09-01T13:31:13;0.80;;;0.80;;
13075;SDS011;6604;52.484;13.330;2022-09-01T13:33:39;1.63;;;1.10;;
13075;SDS011;6604;52.484;13.330;2022-09-01T13:36:06;0.93;;;0.77;;
13075;SDS011;6604;52.484;13.330;2022-09-01T13:38:32;0.60;;;0.60;;
13075;SDS011;6604;52.484;13.330;2022-09-01T13:40:58;0.70;;;0.70;;
13075;SDS011;6604;52.484;13.330;2022-09-01T13:43:25;1.50;;;0.93;;
13075;SDS011;6604;52.484;13.330;2022-09-01T13:45:52;1.47;;;0.80;;
13075;SDS011;6604;52.484;13.330;2022-09-01T13:48:20;0.83;;;0.70;;
13075;SDS011;6604;52.484;13.330;2022-09-01T13:50:48;2.40;;;0.80;;
13075;SDS011;6604;52.484;13.330;2022-09-01T13:53:16;2.57;;;1.10;;
13075;SDS011;6604;52.484;13.330;2022-09-01T13:55:43;4.20;;;1.10;;
13075;SDS011;6604;52.484;13.330;2022-09-01T13:58:10;1.73;;;0.90;;
13075;SDS011;6604;52.484;13.330;2022-09-01T14:00:39;0.77;;;0.73;;
13075;SDS011;6604;52.484;13.330;2022-09-01T14:03:07;1.00;;;0.70;;
13075;SDS011;6604;52.484;13.330;2022-09-01T14:05:37;0.70;;;0.70;;
13075;SDS011;6604;52.484;13.330;2022-09-01T14:08:04;0.80;;;0.80;;
13075;SDS011;6604;52.484;13.330;2022-09-01T14:10:32;2.60;;;0.80;;
13075;SDS011;6604;52.484;13.330;2022-09-01T14:12:59;0.93;;;0.83;;
13075;SDS011;6604;52.484;13.330;2022-09-01T14:15:25;1.17;;;0.90;;
13075;SDS011;6604;52.484;13.330;2022-09-01T14:17:53;0.60;;;0.60;;
13075;SDS011;6604;52.484;13.330;2022-09-01T14:20:21;1.90;;;0.93;;
13075;SDS011;6604;52.484;13.330;2022-09-01T14:22:49;1.57;;;1.23;;
13075;SDS011;6604;52.484;13.330;2022-09-01T14:25:16;1.90;;;0.80;;
13075;SDS011;6604;52.484;13.330;2022-09-01T14:27:43;2.33;;;0.93;;
13075;SDS011;6604;52.484;13.330;2022-09-01T14:30:15;2.10;;;0.93;;
13075;SDS011;6604;52.484;13.330;2022-09-01T14:32:41;2.17;;;0.80;;
13075;SDS011;6604;52.484;13.330;2022-09-01T14:35:08;1.53;;;1.00;;
13075;SDS011;6604;52.484;13.330;2022-09-01T14:37:35;1.20;;;0.90;;
13075;SDS011;6604;52.484;13.330;2022-09-01T14:40:04;2.70;;;1.10;;
13075;SDS011;6604;52.484;13.330;2022-09-01T14:42:31;1.47;;;0.90;;
13075;SDS011;6604;52.484;13.330;2022-09-01T14:44:58;2.50;;;0.70;;
13075;SDS011;6604;52.484;13.330;2022-09-01T14:47:26;0.60;;;0.60;;
13075;SDS011;6604;52.484;13.330;2022-09-01T14:49:52;2.63;;;0.90;;
13075;SDS011;6604;52.484;13.330;2022-09-01T14:52:19;0.70;;;0.70;;
13075;SDS011;6604;52.484;13.330;2022-09-01T14:54:45;0.70;;;0.70;;
13075;SDS011;6604;52.484;13.330;2022-09-01T14:57:13;0.70;;;0.70;;
13075;SDS011;6604;52.484;13.330;2022-09-01T14:59:40;5.13;;;1.10;;
13075;SDS011;6604;52.484;13.330;2022-09-01T15:02:06;1.30;;;0.90;;
13075;SDS011;6604;52.484;13.330;2022-09-01T15:04:33;3.10;;;1.13;;
13075;SDS011;6604;52.484;13.330;2022-09-01T15:06:59;0.93;;;0.90;;
13075;SDS011;6604;52.484;13.330;2022-09-01T15:09:28;0.80;;;0.80;;
13075;SDS011;6604;52.484;13.330;2022-09-01T15:11:55;0.80;;;0.80;;
13075;SDS011;6604;52.484;13.330;2022-09-01T15:14:23;1.53;;;0.80;;
13075;SDS011;6604;52.484;13.330;2022-09-01T15:16:50;3.20;;;0.80;;
13075;SDS011;6604;52.484;13.330;2022-09-01T15:19:16;0.77;;;0.77;;
13075;SDS011;6604;52.484;13.330;2022-09-01T15:21:44;0.80;;;0.80;;
13075;SDS011;6604;52.484;13.330;2022-09-01T15:24:12;2.20;;;0.87;;
13075;SDS011;6604;52.484;13.330;2022-09-01T15:26:38;1.80;;;0.73;;
13075;SDS011;6604;52.484;13.330;2022-09-01T15:29:05;1.70;;;1.03;;
13075;SDS011;6604;52.484;13.330;2022-09-01T15:31:35;1.00;;;0.90;;
13075;SDS011;6604;52.484;13.330;2022-09-01T15:34:02;0.93;;;0.93;;
13075;SDS011;6604;52.484;13.330;2022-09-01T15:36:29;4.70;;;1.20;;
13075;SDS011;6604;52.484;13.330;2022-09-01T15:38:55;1.13;;;0.93;;
13075;SDS011;6604;52.484;13.330;2022-09-01T15:41:22;1.67;;;0.73;;
13075;SDS011;6604;52.484;13.330;2022-09-01T15:43:49;1.63;;;0.70;;
13075;SDS011;6604;52.484;13.330;2022-09-01T15:46:16;1.30;;;0.80;;
13075;SDS011;6604;52.484;13.330;2022-09-01T15:48:44;2.67;;;1.30;;
13075;SDS011;6604;52.484;13.330;2022-09-01T15:53:56;0.80;;;0.80;;
13075;SDS011;6604;52.484;13.330;2022-09-01T15:56:23;0.70;;;0.70;;
13075;SDS011;6604;52.484;13.330;2022-09-01T15:58:50;1.83;;;0.73;;
13075;SDS011;6604;52.484;13.330;2022-09-01T16:01:17;0.80;;;0.80;;
13075;SDS011;6604;52.484;13.330;2022-09-01T16:03:45;0.90;;;0.87;;
13075;SDS011;6604;52.484;13.330;2022-09-01T16:06:12;1.23;;;0.83;;
13075;SDS011;6604;52.484;13.330;2022-09-01T16:08:39;1.00;;;0.73;;
13075;SDS011;6604;52.484;13.330;2022-09-01T16:11:07;1.37;;;0.80;;
13075;SDS011;6604;52.484;13.330;2022-09-01T16:13:36;2.07;;;0.90;;
13075;SDS011;6604;52.484;13.330;2022-09-01T16:16:05;1.60;;;0.90;;
13075;SDS011;6604;52.484;13.330;2022-09-01T16:18:35;1.10;;;1.00;;
13075;SDS011;6604;52.484;13.330;2022-09-01T16:21:09;1.67;;;0.90;;
13075;SDS011;6604;52.484;13.330;2022-09-01T16:23:40;1.30;;;0.70;;
13075;SDS011;6604;52.484;13.330;2022-09-01T16:26:07;0.90;;;0.90;;
13075;SDS011;6604;52.484;13.330;2022-09-01T16:28:37;5.20;;;1.30;;
13075;SDS011;6604;52.484;13.330;2022-09-01T16:31:06;2.60;;;0.80;;
13075;SDS011;6604;52.484;13.330;2022-09-01T16:33:35;0.70;;;0.70;;
13075;SDS011;6604;52.484;13.330;2022-09-01T16:36:11;1.10;;;1.00;;
13075;SDS011;6604;52.484;13.330;2022-09-01T16:38:44;1.53;;;1.10;;
13075;SDS011;6604;52.484;13.330;2022-09-01T16:41:13;1.07;;;0.90;;
13075;SDS011;6604;52.484;13.330;2022-09-01T16:43:44;2.37;;;0.80;;
13075;SDS011;6604;52.484;13.330;2022-09-01T16:46:15;1.20;;;0.97;;
13075;SDS011;6604;52.484;13.330;2022-09-01T16:48:48;1.97;;;0.87;;
13075;SDS011;6604;52.484;13.330;2022-09-01T16:51:19;1.47;;;1.00;;
13075;SDS011;6604;52.484;13.330;2022-09-01T16:53:54;1.30;;;1.10;;
13075;SDS011;6604;52.484;13.330;2022-09-01T16:56:23;1.70;;;1.10;;
13075;SDS011;6604;52.484;13.330;2022-09-01T16:58:57;1.33;;;1.10;;
13075;SDS011;6604;52.484;13.330;2022-09-01T17:01:30;3.27;;;1.17;;
13075;SDS011;6604;52.484;13.330;2022-09-01T17:04:04;0.80;;;0.80;;
13075;SDS011;6604;52.484;13.330;2022-09-01T17:06:35;1.00;;;1.00;;
13075;SDS011;6604;52.484;13.330;2022-09-01T17:09:06;1.00;;;0.90;;
13075;SDS011;6604;52.484;13.330;2022-09-01T17:11:35;1.43;;;1.03;;
13075;SDS011;6604;52.484;13.330;2022-09-01T17:14:03;3.93;;;0.97;;
13075;SDS011;6604;52.484;13.330;2022-09-01T17:16:33;3.60;;;1.30;;
13075;SDS011;6604;52.484;13.330;2022-09-01T17:19:03;1.73;;;0.97;;
13075;SDS011;6604;52.484;13.330;2022-09-01T17:21:30;2.80;;;1.10;;
13075;SDS011;6604;52.484;13.330;2022-09-01T17:23:59;0.90;;;0.90;;
13075;SDS011;6604;52.484;13.330;2022-09-01T17:26:29;0.87;;;0.87;;
13075;SDS011;6604;52.484;13.330;2022-09-01T17:28:56;2.80;;;1.17;;
13075;SDS011;6604;52.484;13.330;2022-09-01T17:31:32;0.90;;;0.90;;
13075;SDS011;6604;52.484;13.330;2022-09-01T17:34:03;1.57;;;0.90;;
13075;SDS011;6604;52.484;13.330;2022-09-01T17:36:35;1.30;;;1.10;;
13075;SDS011;6604;52.484;13.330;2022-09-01T17:39:07;3.07;;;1.50;;
13075;SDS011;6604;52.484;13.330;2022-09-01T17:41:37;2.13;;;1.07;;
13075;SDS011;6604;52.484;13.330;2022-09-01T17:44:14;1.53;;;1.20;;
13075;SDS011;6604;52.484;13.330;2022-09-01T17:46:43;1.47;;;1.10;;
13075;SDS011;6604;52.484;13.330;2022-09-01T17:49:12;2.93;;;1.10;;
13075;SDS011;6604;52.484;13.330;2022-09-01T17:51:43;1.30;;;1.20;;
13075;SDS011;6604;52.484;13.330;2022-09-01T17:54:15;1.27;;;1.00;;
13075;SDS011;6604;52.484;13.330;2022-09-01T17:56:47;1.10;;;1.00;;
13075;SDS011;6604;52.484;13.330;2022-09-01T17:59:19;1.67;;;1.03;;
13075;SDS011;6604;52.484;13.330;2022-09-01T18:01:50;1.40;;;1.20;;
13075;SDS011;6604;52.484;13.330;2022-09-01T18:04:30;1.73;;;1.47;;
13075;SDS011;6604;52.484;13.330;2022-09-01T18:07:02;2.00;;;1.67;;
13075;SDS011;6604;52.484;13.330;2022-09-01T18:09:38;1.70;;;1.60;;
13075;SDS011;6604;52.484;13.330;2022-09-01T18:12:07;4.07;;;1.57;;
13075;SDS011;6604;52.484;13.330;2022-09-01T18:14:34;2.07;;;1.70;;
13075;SDS011;6604;52.484;13.330;2022-09-01T18:17:03;1.40;;;1.30;;
13075;SDS011;6604;52.484;13.330;2022-09-01T18:19:34;2.60;;;1.50;;
13075;SDS011;6604;52.484;13.330;2022-09-01T18:22:02;2.73;;;1.60;;
13075;SDS011;6604;52.484;13.330;2022-09-01T18:24:31;3.03;;;1.80;;
13075;SDS011;6604;52.484;13.330;2022-09-01T18:27:00;3.37;;;1.80;;
13075;SDS011;6604;52.484;13.330;2022-09-01T18:29:27;2.03;;;1.67;;
13075;SDS011;6604;52.484;13.330;2022-09-01T18:32:02;2.70;;;2.20;;
13075;SDS011;6604;52.484;13.330;2022-09-01T18:34:35;1.97;;;1.50;;
13075;SDS011;6604;52.484;13.330;2022-09-01T18:37:07;1.73;;;1.60;;
13075;SDS011;6604;52.484;13.330;2022-09-01T18:39:38;4.23;;;1.90;;
13075;SDS011;6604;52.484;13.330;2022-09-01T18:42:12;3.20;;;1.97;;
13075;SDS011;6604;52.484;13.330;2022-09-01T18:44:46;3.43;;;2.23;;
13075;SDS011;6604;52.484;13.330;2022-09-01T18:47:14;2.80;;;2.10;;
13075;SDS011;6604;52.484;13.330;2022-09-01T18:49:47;3.60;;;2.23;;
13075;SDS011;6604;52.484;13.330;2022-09-01T18:52:21;3.77;;;2.57;;
13075;SDS011;6604;52.484;13.330;2022-09-01T18:54:52;3.87;;;2.00;;
13075;SDS011;6604;52.484;13.330;2022-09-01T18:57:23;2.07;;;1.77;;
13075;SDS011;6604;52.484;13.330;2022-09-01T19:00:03;3.13;;;1.90;;
13075;SDS011;6604;52.484;13.330;2022-09-01T19:02:42;3.23;;;2.10;;
13075;SDS011;6604;52.484;13.330;2022-09-01T19:05:15;3.93;;;2.40;;
13075;SDS011;6604;52.484;13.330;2022-09-01T19:07:45;2.47;;;2.00;;
13075;SDS011;6604;52.484;13.330;2022-09-01T19:10:15;2.10;;;1.90;;
13075;SDS011;6604;52.484;13.330;2022-09-01T19:12:47;2.63;;;1.80;;
13075;SDS011;6604;52.484;13.330;2022-09-01T19:15:18;2.23;;;1.77;;
13075;SDS011;6604;52.484;13.330;2022-09-01T19:17:53;2.83;;;1.57;;
13075;SDS011;6604;52.484;13.330;2022-09-01T19:20:22;1.70;;;1.60;;
13075;SDS011;6604;52.484;13.330;2022-09-01T19:22:57;1.80;;;1.60;;
13075;SDS011;6604;52.484;13.330;2022-09-01T19:25:25;2.10;;;1.70;;
13075;SDS011;6604;52.484;13.330;2022-09-01T19:28:08;2.60;;;1.50;;
13075;SDS011;6604;52.484;13.330;2022-09-01T19:30:39;3.40;;;1.63;;
13075;SDS011;6604;52.484;13.330;2022-09-01T19:33:08;1.70;;;1.60;;
13075;SDS011;6604;52.484;13.330;2022-09-01T19:35:36;2.73;;;1.90;;
13075;SDS011;6604;52.484;13.330;2022-09-01T19:38:05;3.23;;;1.90;;
13075;SDS011;6604;52.484;13.330;2022-09-01T19:40:33;1.83;;;1.60;;
13075;SDS011;6604;52.484;13.330;2022-09-01T19:43:02;1.83;;;1.70;;
13075;SDS011;6604;52.484;13.330;2022-09-01T19:45:34;1.37;;;1.27;;
13075;SDS011;6604;52.484;13.330;2022-09-01T19:48:05;2.57;;;1.60;;
13075;SDS011;6604;52.484;13.330;2022-09-01T19:50:36;2.30;;;1.43;;
13075;SDS011;6604;52.484;13.330;2022-09-01T19:53:04;1.80;;;1.57;;
13075;SDS011;6604;52.484;13.330;2022-09-01T19:55:35;1.63;;;1.50;;
13075;SDS011;6604;52.484;13.330;2022-09-01T19:58:03;1.47;;;1.37;;
13075;SDS011;6604;52.484;13.330;2022-09-01T20:00:36;3.23;;;1.33;;
13075;SDS011;6604;52.484;13.330;2022-09-01T20:03:07;1.93;;;1.40;;
13075;SDS011;6604;52.484;13.330;2022-09-01T20:05:38;2.03;;;1.50;;
13075;SDS011;6604;52.484;13.330;2022-09-01T20:08:07;2.13;;;1.50;;
13075;SDS011;6604;52.484;13.330;2022-09-01T20:10:42;2.30;;;1.73;;
13075;SDS011;6604;52.484;13.330;2022-09-01T20:16:13;2.00;;;1.30;;
13075;SDS011;6604;52.484;13.330;2022-09-01T20:18:43;2.73;;;1.60;;
13075;SDS011;6604;52.484;13.330;2022-09-01T20:21:11;2.53;;;1.50;;
13075;SDS011;6604;52.484;13.330;2022-09-01T20:23:41;1.83;;;1.57;;
13075;SDS011;6604;52.484;13.330;2022-09-01T20:26:09;1.73;;;1.63;;
13075;SDS011;6604;52.484;13.330;2022-09-01T20:28:39;2.10;;;1.50;;
13075;SDS011;6604;52.484;13.330;2022-09-01T20:31:10;2.07;;;1.60;;
13075;SDS011;6604;52.484;13.330;2022-09-01T20:33:42;2.73;;;1.50;;
13075;SDS011;6604;52.484;13.330;2022-09-01T20:36:11;2.67;;;1.70;;
13075;SDS011;6604;52.484;13.330;2022-09-01T20:38:41;1.60;;;1.50;;
13075;SDS011;6604;52.484;13.330;2022-09-01T20:41:26;2.13;;;1.80;;
13075;SDS011;6604;52.484;13.330;2022-09-01T20:43:55;2.47;;;1.80;;
13075;SDS011;6604;52.484;13.330;2022-09-01T20:46:22;2.50;;;1.60;;
13075;SDS011;6604;52.484;13.330;2022-09-01T20:48:51;1.90;;;1.60;;
13075;SDS011;6604;52.484;13.330;2022-09-01T20:51:20;4.87;;;1.90;;
13075;SDS011;6604;52.484;13.330;2022-09-01T20:53:56;4.00;;;1.97;;
13075;SDS011;6604;52.484;13.330;2022-09-01T20:56:26;2.03;;;1.63;;
13075;SDS011;6604;52.484;13.330;2022-09-01T20:58:55;2.23;;;1.83;;
13075;SDS011;6604;52.484;13.330;2022-09-01T21:01:25;2.60;;;1.50;;
13075;SDS011;6604;52.484;13.330;2022-09-01T21:03:59;3.17;;;1.60;;
13075;SDS011;6604;52.484;13.330;2022-09-01T21:06:29;2.13;;;1.40;;
13075;SDS011;6604;52.484;13.330;2022-09-01T21:08:59;4.10;;;1.80;;
13075;SDS011;6604;52.484;13.330;2022-09-01T21:11:31;1.87;;;1.50;;
13075;SDS011;6604;52.484;13.330;2022-09-01T21:14:05;2.43;;;1.53;;
13075;SDS011;6604;52.484;13.330;2022-09-01T21:16:37;1.80;;;1.50;;
13075;SDS011;6604;52.484;13.330;2022-09-01T21:19:08;2.77;;;1.47;;
13075;SDS011;6604;52.484;13.330;2022-09-01T21:21:40;1.73;;;1.63;;
13075;SDS011;6604;52.484;13.330;2022-09-01T21:24:08;1.83;;;1.53;;
13075;SDS011;6604;52.484;13.330;2022-09-01T21:26:35;2.90;;;1.60;;
13075;SDS011;6604;52.484;13.330;2022-09-01T21:29:05;1.73;;;1.47;;
